CPD8 weather

Public forecast

Using degrees Celsius for public forecast. Weather courtesy of forecast.io.

Closest aviation weather report (METAR) to Hawkesbury (Windover Field) Airport

Report is more than 2 hours old.

Closest report is Ottawa / Gatineau Airport, 31.8 nm (58.9 km) W. Retrieved 2020/08/12 01:00 UTC (3 hours ago):

CYND 120100Z 28003KT 15SM FEW080 21/20 A2981 RMK AC1 LAST STFD OBS/NXT 121100Z SLP097 DENSITY ALT 1100FT

Closest aviation forecast (TAF) to Hawkesbury (Windover Field) Airport

Forecast is more than 6 hours old.

Closest forecast is Ottawa / Gatineau Airport, 31.8 nm (58.9 km) W. Retrieved 2020/08/11 18:00 UTC (10 hours ago):

TAF CYND 111738Z 1118/1201 18012G22KT P6SM SCT060 BKN200 PROB30 1118/1121 VRB20G35KT 1SM +TSRA BR BKN030 OVC050CB FM112100 24010G20KT P6SM BKN050 TEMPO 1121/1201 P6SM -SHRA PROB30 1121/1201 VRB20G35KT 1SM +TSRA BR BKN030 OVC050CB RMK NXT FCST WILL BE ISSUED AT 121245Z